Time;durP1;ratioP1;P1;durP2;ratioP2;P2;SDS_P1;SDS_P2;PMS_P1;PMS_P2;Temp;Humidity;BMP_temperature;BMP_pressure;BME280_temperature;BME280_humidity;BME280_pressure;Samples;Min_cycle;Max_cycle;Signal;HPM_P1;HPM_P2
2022/05/30 00:01:16;;;;;;;10.20;1.85;;;;;;;10.13;75.57;101050.88;5106343;27;20836;-76
2022/05/30 00:03:41;;;;;;;;;;;;;;;10.07;76.52;101054.03;5131019;27;20577;-76
2022/05/30 00:06:10;;;;;;;4.03;1.30;;;;;;;10.10;77.98;101060.72;5091765;27;19962;-76
2022/05/30 00:08:36;;;;;;;6.35;1.10;;;;;;;10.06;78.49;101057.59;5122647;27;20045;-76
2022/05/30 00:11:03;;;;;;;9.70;2.25;;;;;;;10.06;79.06;101052.41;5108115;27;20027;-76
2022/05/30 00:13:29;;;;;;;6.85;1.45;;;;;;;10.07;79.84;101056.63;5126083;27;20037;-76
2022/05/30 00:15:55;;;;;;;6.30;1.20;;;;;;;10.05;79.91;101045.59;5132042;27;20384;-76
2022/05/30 00:18:20;;;;;;;4.25;1.20;;;;;;;10.05;80.24;101045.59;5089413;27;20030;-75
2022/05/30 00:20:46;;;;;;;5.47;1.13;;;;;;;10.08;80.42;101045.31;5093163;27;20548;-76
2022/05/30 00:23:12;;;;;;;6.65;1.60;;;;;;;10.03;80.59;101046.72;5110594;27;20415;-76
2022/05/30 00:25:43;;;;;;;5.45;1.20;;;;;;;10.01;80.94;101057.22;5102423;27;20027;-76
2022/05/30 00:28:09;;;;;;;7.18;1.70;;;;;;;10.00;81.34;101047.81;5120976;27;20092;-76
2022/05/30 00:30:36;;;;;;;8.25;1.67;;;;;;;9.96;80.91;101056.81;5123285;27;20034;-76
2022/05/30 00:33:01;;;;;;;5.35;1.40;;;;;;;9.93;81.00;101046.78;5112035;22;20067;-68
2022/05/30 00:35:27;;;;;;;10.75;2.03;;;;;;;9.89;81.13;101043.66;5062501;28;20024;-67
2022/05/30 00:37:53;;;;;;;6.68;1.75;;;;;;;9.88;79.93;101048.97;5077626;28;20402;-68
2022/05/30 00:40:18;;;;;;;6.40;1.60;;;;;;;9.86;79.76;101046.53;5063911;28;20032;-68
2022/05/30 00:42:44;;;;;;;5.78;1.35;;;;;;;9.89;80.37;101053.22;5060973;28;20032;-68
2022/05/30 00:45:10;;;;;;;6.32;1.70;;;;;;;9.90;80.22;101037.50;5061324;28;20067;-68
2022/05/30 00:47:37;;;;;;;16.05;2.28;;;;;;;9.89;80.00;101041.06;5062739;28;20330;-68
2022/05/30 00:50:03;;;;;;;5.50;2.13;;;;;;;9.91;79.67;101038.34;5066026;28;20029;-68
2022/05/30 00:52:34;;;;;;;11.68;1.90;;;;;;;9.89;79.60;101033.28;5061744;28;20485;-68
2022/05/30 00:55:10;;;;;;;15.40;2.38;;;;;;;9.86;79.88;101037.94;5061097;28;20064;-68
2022/05/30 00:57:37;;;;;;;10.50;2.05;;;;;;;9.84;79.75;101040.69;5057557;28;20126;-68
2022/05/30 01:00:13;;;;;;;14.57;2.28;;;;;;;9.82;80.07;101037.41;5060441;28;20032;-68
2022/05/30 01:02:41;;;;;;;5.63;1.90;;;;;;;9.80;80.68;101036.75;5056770;28;20497;-68
2022/05/30 01:07:54;;;;;;;10.55;1.83;;;;;;;9.84;81.77;101039.88;5075059;28;20574;-68
2022/05/30 01:10:21;;;;;;;10.68;2.15;;;;;;;9.79;81.77;101039.47;5043782;28;20135;-68
2022/05/30 01:12:57;;;;;;;7.85;2.38;;;;;;;9.79;81.66;101034.31;5062463;28;20504;-68
2022/05/30 01:15:28;;;;;;;10.45;2.53;;;;;;;9.80;80.45;101039.34;5059799;28;20546;-68
2022/05/30 01:18:01;;;;;;;15.27;2.38;;;;;;;9.77;81.18;101033.63;5061076;28;20031;-68
2022/05/30 01:20:39;;;;;;;7.83;2.50;;;;;;;9.75;81.68;101033.78;5056638;28;20542;-68
2022/05/30 01:23:21;;;;;;;14.15;1.77;;;;;;;9.74;81.73;101026.97;5060253;28;20062;-67
2022/05/30 01:25:47;;;;;;;14.13;2.33;;;;;;;9.76;81.81;101032.81;5073954;28;20047;-68
2022/05/30 01:28:39;;;;;;;12.07;1.73;;;;;;;9.73;82.38;101030.50;5046545;28;20524;-68
2022/05/30 01:31:06;;;;;;;11.70;1.98;;;;;;;9.74;82.81;101026.97;5061276;28;20032;-68
2022/05/30 01:33:33;;;;;;;9.30;1.98;;;;;;;9.76;82.88;101030.25;5062015;28;20078;-67
2022/05/30 01:35:59;;;;;;;9.20;1.98;;;;;;;9.77;82.95;101026.66;5043237;28;20036;-68
2022/05/30 01:38:25;;;;;;;6.30;1.70;;;;;;;9.76;82.91;101017.28;5077387;28;20039;-68
2022/05/30 01:40:55;;;;;;;6.68;1.73;;;;;;;9.76;82.81;101014.69;5059969;28;20085;-68
2022/05/30 01:43:23;;;;;;;6.68;1.65;;;;;;;9.77;82.90;101015.50;5061920;28;20068;-68
2022/05/30 01:45:54;;;;;;;10.88;2.25;;;;;;;9.76;83.10;101009.53;5041691;28;20029;-68
2022/05/30 01:48:20;;;;;;;9.20;1.73;;;;;;;9.75;83.29;101010.47;5076879;28;20024;-68
2022/05/30 01:50:47;;;;;;;9.38;1.58;;;;;;;9.77;83.12;101012.91;5059671;28;20043;-68
2022/05/30 01:53:24;;;;;;;8.38;1.48;;;;;;;9.78;83.16;101012.78;5060486;28;20024;-68
2022/05/30 01:56:22;;;;;;;5.97;1.60;;;;;;;9.80;83.27;101005.69;5057706;28;20040;-68
2022/05/30 01:58:49;;;;;;;10.55;1.90;;;;;;;9.79;83.64;101008.41;5058339;28;20517;-68
2022/05/30 02:01:33;;;;;;;8.02;2.13;;;;;;;9.76;84.21;101004.34;5062028;28;20055;-68
2022/05/30 02:04:01;;;;;;;8.77;1.85;;;;;;;9.73;84.43;101009.78;5047038;28;20229;-68
2022/05/30 02:06:27;;;;;;;7.78;1.70;;;;;;;9.69;85.14;101013.66;5037649;28;20514;-68
2022/05/30 02:08:53;;;;;;;11.10;1.67;;;;;;;9.69;85.73;101008.47;5026636;28;20049;-68
2022/05/30 02:11:24;;;;;;;9.88;2.45;;;;;;;9.64;86.24;101011.47;5044592;28;20052;-68
2022/05/30 02:13:56;;;;;;;7.00;1.73;;;;;;;9.59;85.91;101007.69;5044207;28;20072;-68
2022/05/30 02:19:18;;;;;;;12.43;1.83;;;;;;;9.54;86.25;101008.94;5047269;28;20090;-67
2022/05/30 02:21:45;;;;;;;11.23;1.85;;;;;;;9.50;85.97;101004.22;5030441;28;20056;-68
2022/05/30 02:24:12;;;;;;;8.70;2.10;;;;;;;9.49;86.32;101005.16;5046066;28;20097;-68
2022/05/30 02:26:37;;;;;;;9.02;1.90;;;;;;;9.52;85.86;100999.69;5042963;28;20137;-67
2022/05/30 02:29:06;;;;;;;8.73;1.90;;;;;;;9.52;85.21;101005.69;5060418;28;20048;-68
2022/05/30 02:31:31;;;;;;;8.85;1.98;;;;;;;9.50;85.25;101006.78;5061237;28;20049;-68
2022/05/30 02:36:44;;;;;;;10.63;1.83;;;;;;;9.47;85.40;101000.09;5072832;28;20040;-68
2022/05/30 02:39:14;;;;;;;8.10;2.15;;;;;;;9.48;85.31;100993.19;5078918;28;20036;-68
2022/05/30 02:42:09;;;;;;;11.77;2.35;;;;;;;9.42;85.07;100997.16;5063812;28;20044;-68
2022/05/30 02:44:37;;;;;;;11.55;2.70;;;;;;;9.40;85.23;100991.31;5061970;28;20043;-67
2022/05/30 02:47:04;;;;;;;8.60;1.98;;;;;;;9.41;85.20;100992.94;5066197;28;20024;-68
2022/05/30 02:49:30;;;;;;;8.20;2.00;;;;;;;9.38;85.21;100995.81;5063811;28;20070;-67
2022/05/30 02:51:56;;;;;;;10.23;2.47;;;;;;;9.35;85.01;100993.50;5080577;28;20047;-68
2022/05/30 02:54:23;;;;;;;12.95;3.03;;;;;;;9.34;85.03;100995.28;5079532;28;20113;-68
2022/05/30 02:57:07;;;;;;;7.15;1.67;;;;;;;9.30;85.14;100991.34;5063190;28;20086;-68
2022/05/30 02:59:34;;;;;;;9.68;1.92;;;;;;;9.29;85.20;101000.06;5060789;28;20472;-68
2022/05/30 03:02:08;;;;;;;7.82;1.50;;;;;;;9.31;84.98;100992.16;5080368;28;20406;-68
2022/05/30 03:04:35;;;;;;;8.75;1.88;;;;;;;9.32;84.98;100994.63;5042005;28;20482;-68
2022/05/30 03:07:07;;;;;;;9.48;2.40;;;;;;;9.38;84.16;101000.16;5061824;28;20048;-68
2022/05/30 03:09:33;;;;;;;10.15;2.00;;;;;;;9.26;84.11;100997.75;5047449;28;20024;-68
2022/05/30 03:12:11;;;;;;;12.05;2.10;;;;;;;9.22;84.27;101008.53;5081915;28;20115;-67
2022/05/30 03:14:37;;;;;;;12.38;2.53;;;;;;;9.21;84.66;101006.91;5059754;28;20043;-68
2022/05/30 03:17:02;;;;;;;9.07;1.65;;;;;;;9.20;85.08;101006.09;5064206;28;20017;-68
2022/05/30 03:19:29;;;;;;;11.57;2.47;;;;;;;9.20;84.89;101006.09;5061689;28;20024;-68
2022/05/30 03:21:57;;;;;;;11.93;2.15;;;;;;;9.21;84.23;101009.50;5078908;28;20495;-68
2022/05/30 03:24:23;;;;;;;11.07;2.22;;;;;;;9.17;84.82;101011.53;5065173;28;20082;-68
2022/05/30 03:26:49;;;;;;;9.18;2.00;;;;;;;9.16;84.99;101012.50;5047717;28;20021;-67
2022/05/30 03:29:18;;;;;;;11.90;2.33;;;;;;;9.15;84.96;101003.09;5064176;28;20028;-68
2022/05/30 03:31:46;;;;;;;17.80;2.05;;;;;;;9.16;85.15;101007.34;5059449;28;20054;-68
2022/05/30 03:34:11;;;;;;;6.72;1.80;;;;;;;9.14;85.30;101010.06;5063745;28;20548;-68
2022/05/30 03:36:38;;;;;;;8.68;1.95;;;;;;;9.13;85.37;101016.19;5059660;28;20391;-68
2022/05/30 03:39:22;;;;;;;10.65;1.90;;;;;;;9.13;85.76;101015.38;5065578;28;20118;-68
2022/05/30 03:42:06;;;;;;;9.10;2.08;;;;;;;9.12;85.76;101014.56;5063489;28;20109;-68
2022/05/30 03:44:52;;;;;;;5.55;2.25;;;;;;;9.09;85.59;101014.84;5062991;28;20082;-68
2022/05/30 03:47:19;;;;;;;7.45;1.52;;;;;;;9.09;85.82;101019.19;5079448;28;20033;-68
2022/05/30 03:49:46;;;;;;;5.63;1.60;;;;;;;9.06;86.07;101014.28;5060489;28;20044;-68
2022/05/30 03:52:14;;;;;;;7.93;1.95;;;;;;;9.06;86.20;101017.72;5063023;28;20037;-68
2022/05/30 03:54:40;;;;;;;5.85;1.65;;;;;;;9.05;86.19;101016.06;5076013;28;20032;-68
2022/05/30 03:57:06;;;;;;;8.27;1.50;;;;;;;9.05;86.21;101026.44;5061133;28;20036;-68
2022/05/30 03:59:32;;;;;;;11.45;1.92;;;;;;;9.06;86.00;101025.47;5064639;28;20098;-68
2022/05/30 04:01:57;;;;;;;8.05;2.33;;;;;;;9.07;85.84;101023.69;5062140;28;20089;-68
2022/05/30 04:04:23;;;;;;;8.90;1.70;;;;;;;9.08;85.84;101028.75;5062581;28;20036;-68
2022/05/30 04:06:49;;;;;;;10.50;2.67;;;;;;;9.08;85.73;101028.75;5062970;28;20120;-67
2022/05/30 04:09:18;;;;;;;11.38;1.90;;;;;;;9.10;86.20;101028.59;5060592;28;20065;-68
2022/05/30 04:12:09;;;;;;;11.73;2.45;;;;;;;9.08;86.46;101023.56;5061222;28;20037;-68
2022/05/30 04:15:07;;;;;;;6.03;1.67;;;;;;;9.09;86.65;101025.19;4993059;28;20614;-68
2022/05/30 04:17:36;;;;;;;8.35;2.00;;;;;;;9.08;86.65;101026.16;5075353;28;20828;-68
2022/05/30 04:20:05;;;;;;;10.55;2.40;;;;;;;9.10;87.06;101031.19;5061875;28;20035;-68
2022/05/30 04:22:31;;;;;;;8.60;1.73;;;;;;;9.10;86.79;101023.44;5061307;28;20035;-68
2022/05/30 04:25:20;;;;;;;7.43;2.47;;;;;;;9.11;86.37;101033.63;5048414;28;20032;-68
2022/05/30 04:27:46;;;;;;;10.02;1.80;;;;;;;9.12;86.22;101040.44;5061740;28;20040;-68
2022/05/30 04:30:12;;;;;;;10.40;2.20;;;;;;;9.13;86.58;101036.88;5063176;28;20024;-68
2022/05/30 04:35:16;;;;;;;8.73;2.05;;;;;;;9.18;86.65;101031.28;5048858;28;20045;-69
2022/05/30 04:37:41;;;;;;;11.40;1.70;;;;;;;9.20;86.68;101033.75;5039920;28;20065;-70
2022/05/30 04:40:21;;;;;;;8.00;2.00;;;;;;;9.19;86.47;101035.50;5021117;28;20375;-70
2022/05/30 04:43:05;;;;;;;9.88;2.08;;;;;;;9.22;85.74;101037.81;5025968;28;20061;-70
2022/05/30 04:46:14;;;;;;;10.90;2.08;;;;;;;9.26;85.65;101038.34;5021648;28;20203;-69
2022/05/30 04:48:47;;;;;;;7.47;2.15;;;;;;;9.25;85.21;101027.19;5039014;28;20048;-70
2022/05/30 04:51:13;;;;;;;12.52;3.10;;;;;;;9.26;85.11;101038.34;5040127;28;20052;-71
2022/05/30 04:53:40;;;;;;;15.00;2.50;;;;;;;9.28;84.92;101034.66;5040868;28;20391;-70
2022/05/30 04:56:08;;;;;;;11.68;3.25;;;;;;;9.29;84.50;101035.50;5042186;28;20049;-70
2022/05/30 04:58:44;;;;;;;16.13;3.05;;;;;;;9.32;84.10;101035.19;5020729;28;20029;-70
2022/05/30 05:01:15;;;;;;;8.20;2.15;;;;;;;9.35;83.91;101033.13;5025132;28;20056;-69
2022/05/30 05:03:42;;;;;;;9.82;2.10;;;;;;;9.37;83.96;101043.34;5021755;28;20079;-70
2022/05/30 05:06:12;;;;;;;14.32;2.53;;;;;;;9.40;84.22;101047.41;5041080;28;20086;-70
2022/05/30 05:09:04;;;;;;;8.18;2.33;;;;;;;9.41;83.96;101047.28;5040122;28;20040;-70
2022/05/30 05:11:35;;;;;;;8.63;2.17;;;;;;;9.42;84.08;101043.75;5024806;28;20045;-70
2022/05/30 05:14:20;;;;;;;10.73;2.38;;;;;;;9.45;84.04;101051.22;5023404;28;20399;-70
2022/05/30 05:17:08;;;;;;;9.25;2.28;;;;;;;9.49;84.24;101054.34;5025397;28;20052;-70
2022/05/30 05:19:36;;;;;;;10.52;1.80;;;;;;;9.52;84.19;101054.88;5041012;28;20116;-70
2022/05/30 05:22:02;;;;;;;5.78;2.13;;;;;;;9.55;84.12;101064.13;5023545;28;20033;-70
2022/05/30 05:24:29;;;;;;;9.35;2.65;;;;;;;9.60;84.15;101056.75;5021485;28;20651;-69
2022/05/30 05:27:17;;;;;;;12.48;2.38;;;;;;;9.64;84.42;101058.06;5025076;28;20060;-69
2022/05/30 05:29:45;;;;;;;10.80;2.65;;;;;;;9.68;84.53;101058.59;5038081;28;20390;-69
2022/05/30 05:32:11;;;;;;;13.70;2.42;;;;;;;9.72;83.46;101062.56;5023646;28;20049;-70
2022/05/30 05:34:38;;;;;;;17.15;3.22;;;;;;;9.77;83.83;101062.94;5024050;28;20025;-69
2022/05/30 05:37:03;;;;;;;11.50;2.00;;;;;;;9.89;83.12;101072.16;5007615;28;20033;-70
2022/05/30 05:39:34;;;;;;;10.70;2.03;;;;;;;9.89;83.05;101068.75;5020410;28;20030;-69
2022/05/30 05:42:02;;;;;;;8.45;2.10;;;;;;;10.01;82.58;101077.13;5039492;28;20056;-70
2022/05/30 05:44:28;;;;;;;16.15;2.58;;;;;;;10.12;79.88;101072.56;5022732;28;20040;-70
2022/05/30 05:46:58;;;;;;;16.17;2.35;;;;;;;10.17;79.24;101069.53;5025151;28;20033;-69
2022/05/30 05:49:26;;;;;;;16.13;2.63;;;;;;;10.22;78.37;101066.50;5020681;28;20031;-70
2022/05/30 05:51:56;;;;;;;13.57;2.67;;;;;;;10.31;77.54;101078.59;5018104;28;20040;-69
2022/05/30 05:54:23;;;;;;;10.18;2.45;;;;;;;10.32;76.26;101080.22;5005657;28;20120;-70
2022/05/30 05:56:51;;;;;;;10.88;2.25;;;;;;;10.46;75.77;101068.53;5031967;28;20398;-70
2022/05/30 05:59:24;;;;;;;11.32;2.13;;;;;;;10.76;74.55;101074.31;5006442;28;20029;-70
2022/05/30 06:01:50;;;;;;;12.68;2.33;;;;;;;11.03;73.05;101070.75;5019980;28;20064;-69
2022/05/30 06:04:17;;;;;;;11.25;2.17;;;;;;;11.19;72.50;101073.47;5036398;28;20033;-69
2022/05/30 06:07:01;;;;;;;11.10;2.05;;;;;;;11.21;72.27;101073.31;5021638;28;20419;-70
2022/05/30 06:09:39;;;;;;;12.07;1.83;;;;;;;11.32;71.86;101070.44;5020436;28;20033;-70
2022/05/30 06:12:11;;;;;;;16.33;2.47;;;;;;;11.40;71.61;101067.09;5008840;28;20041;-70
2022/05/30 06:14:39;;;;;;;13.30;2.45;;;;;;;11.61;71.01;101074.47;5041034;28;20033;-70
2022/05/30 06:17:04;;;;;;;12.88;2.72;;;;;;;11.94;68.94;101070.25;5044907;28;20033;-70
2022/05/30 06:19:32;;;;;;;13.57;3.42;;;;;;;11.96;67.35;101070.06;5029610;28;20395;-70
2022/05/30 06:21:58;;;;;;;12.88;2.30;;;;;;;11.93;68.33;101067.81;5026057;28;20041;-70
2022/05/30 06:24:23;;;;;;;13.13;2.10;;;;;;;11.88;68.62;101076.88;5023736;28;20041;-70
2022/05/30 06:27:21;;;;;;;6.75;1.90;;;;;;;11.88;67.35;101071.66;5026614;28;20037;-70
2022/05/30 06:30:06;;;;;;;10.85;2.17;;;;;;;11.95;68.50;101087.44;5025658;28;20049;-69
2022/05/30 06:32:32;;;;;;;13.05;2.45;;;;;;;12.04;70.36;101081.31;5045356;28;20029;-70
2022/05/30 06:35:03;;;;;;;17.17;2.70;;;;;;;12.17;71.04;101086.06;5026988;28;20041;-70
2022/05/30 06:37:29;;;;;;;16.00;2.22;;;;;;;12.08;69.99;101085.22;5026819;28;20095;-70
2022/05/30 06:39:56;;;;;;;11.25;2.15;;;;;;;12.27;69.44;101080.72;5023637;28;20029;-69
2022/05/30 06:42:34;;;;;;;14.73;2.22;;;;;;;12.27;67.75;101086.72;5045002;28;20526;-70
2022/05/30 06:45:35;;;;;;;11.93;1.90;;;;;;;12.36;67.43;101084.16;5007298;28;20054;-69
2022/05/30 06:48:19;;;;;;;11.65;1.88;;;;;;;12.46;66.70;101084.78;5023835;28;20076;-70
2022/05/30 06:51:13;;;;;;;29.80;9.77;;;;;;;12.29;66.20;101089.16;5044796;28;20406;-69
2022/05/30 06:53:45;;;;;;;11.93;2.40;;;;;;;12.37;66.43;101096.16;5028643;28;20029;-70
2022/05/30 06:56:20;;;;;;;7.33;1.90;;;;;;;12.41;66.08;101100.06;5041848;28;20120;-70
2022/05/30 06:58:47;;;;;;;9.68;2.63;;;;;;;12.52;65.46;101102.34;5026816;28;20468;-70
2022/05/30 07:01:14;;;;;;;11.50;2.30;;;;;;;12.41;65.14;101103.50;5044920;28;20033;-70
2022/05/30 07:03:40;;;;;;;13.07;2.03;;;;;;;12.48;64.61;101098.44;5029286;28;20545;-70
2022/05/30 07:06:33;;;;;;;10.98;2.00;;;;;;;12.47;62.78;101102.03;5028636;28;20403;-70
2022/05/30 07:09:17;;;;;;;9.93;1.80;;;;;;;12.56;63.89;101097.63;5026675;28;20478;-70
2022/05/30 07:11:53;;;;;;;10.13;1.70;;;;;;;12.50;63.66;101106.91;5025162;28;20041;-70
2022/05/30 07:14:21;;;;;;;11.43;2.65;;;;;;;12.66;63.83;101098.31;5041971;28;20120;-70
2022/05/30 07:16:47;;;;;;;10.77;2.22;;;;;;;12.51;62.43;101103.34;5023639;28;20116;-70
2022/05/30 07:19:13;;;;;;;7.85;1.65;;;;;;;12.60;63.29;101107.56;5007532;28;20052;-70
2022/05/30 07:21:48;;;;;;;8.40;2.13;;;;;;;12.68;63.18;101096.34;5026261;28;20041;-70
2022/05/30 07:24:33;;;;;;;10.20;1.58;;;;;;;12.92;61.90;101102.50;5024254;28;20060;-70
2022/05/30 07:27:17;;;;;;;8.95;2.40;;;;;;;13.44;60.84;101100.34;5028169;28;20052;-69
2022/05/30 07:30:01;;;;;;;11.52;1.98;;;;;;;13.53;58.92;101106.34;5025171;28;20095;-69
2022/05/30 07:32:45;;;;;;;8.40;1.67;;;;;;;13.57;59.61;101112.03;5025355;28;20450;-70
2022/05/30 07:35:29;;;;;;;9.18;1.75;;;;;;;13.71;58.93;101108.75;5022933;28;20056;-70
2022/05/30 07:37:57;;;;;;;17.15;2.15;;;;;;;13.85;58.81;101107.19;5025555;28;20037;-70
2022/05/30 07:40:32;;;;;;;13.55;2.38;;;;;;;13.98;58.83;101101.44;5023066;28;20180;-70
2022/05/30 07:43:12;;;;;;;11.73;1.77;;;;;;;14.17;58.43;101110.63;5039743;28;20066;-70
2022/05/30 07:46:06;;;;;;;14.45;3.28;;;;;;;14.17;57.75;101113.25;5025174;28;20392;-70
2022/05/30 07:48:58;;;;;;;11.43;2.38;;;;;;;14.49;58.17;101101.78;5038644;28;20385;-70
2022/05/30 07:51:42;;;;;;;8.70;1.70;;;;;;;14.70;55.06;101105.56;5023284;28;20454;-70
2022/05/30 07:54:14;;;;;;;9.40;1.40;;;;;;;14.73;54.77;101098.19;5023362;28;20025;-70
2022/05/30 07:56:51;;;;;;;8.07;1.13;;;;;;;14.75;54.85;101103.25;5022064;28;20042;-70
2022/05/30 07:59:18;;;;;;;15.48;2.03;;;;;;;14.80;55.91;101108.72;5022884;28;20032;-70
2022/05/30 08:01:45;;;;;;;7.38;1.75;;;;;;;14.89;55.00;101102.47;5041033;28;20396;-70
2022/05/30 08:04:13;;;;;;;11.27;1.40;;;;;;;14.89;55.30;101096.44;5025224;28;20029;-70
2022/05/30 08:06:45;;;;;;;12.65;2.20;;;;;;;14.86;55.55;101104.59;5021982;28;20037;-70
2022/05/30 08:09:29;;;;;;;13.57;2.40;;;;;;;14.94;57.12;101101.94;5025015;28;20103;-69
2022/05/30 08:12:07;;;;;;;8.38;1.45;;;;;;;14.91;53.94;101102.28;5024029;28;20037;-70
2022/05/30 08:14:52;;;;;;;11.82;1.52;;;;;;;15.08;54.96;101102.94;5021646;28;20087;-70
2022/05/30 08:17:18;;;;;;;5.75;1.65;;;;;;;15.23;54.91;101101.16;5041316;28;20121;-70
2022/05/30 08:19:43;;;;;;;6.20;1.60;;;;;;;15.56;52.22;101093.78;5023130;28;20200;-70
2022/05/30 08:22:10;;;;;;;9.68;1.45;;;;;;;15.75;49.17;101094.25;5005110;28;20134;-70
2022/05/30 08:24:40;;;;;;;11.65;2.55;;;;;;;15.49;51.25;101097.28;5007448;28;20048;-70
2022/05/30 08:27:11;;;;;;;5.47;1.33;;;;;;;15.52;52.53;101095.13;5039354;28;21088;-70
2022/05/30 08:29:47;;;;;;;9.73;2.00;;;;;;;15.55;54.42;101099.19;5027851;28;20024;-70
2022/05/30 08:32:14;;;;;;;4.25;1.45;;;;;;;15.49;53.31;101097.28;5039709;28;20772;-69
2022/05/30 08:35:13;;;;;;;9.48;1.73;;;;;;;15.42;53.90;101099.00;4988062;28;20049;-70
2022/05/30 08:37:40;;;;;;;9.30;1.67;;;;;;;15.42;53.11;101104.22;5042682;28;20033;-70
2022/05/30 08:43:12;;;;;;;9.38;1.73;;;;;;;15.38;52.17;101107.19;5023083;28;21436;-70
2022/05/30 08:45:45;;;;;;;4.90;1.67;;;;;;;15.33;51.65;101106.13;5042394;28;20368;-70
2022/05/30 08:48:39;;;;;;;10.07;1.42;;;;;;;15.57;50.37;101107.66;5022096;28;20126;-70
2022/05/30 08:51:15;;;;;;;5.97;1.00;;;;;;;15.87;50.33;101108.44;5038321;28;20029;-69
2022/05/30 08:54:16;;;;;;;9.32;1.30;;;;;;;16.06;50.71;101104.44;5022250;28;20498;-70
2022/05/30 08:56:56;;;;;;;3.63;0.80;;;;;;;16.01;50.00;101104.19;5038793;28;20033;-70
2022/05/30 08:59:50;;;;;;;2.05;0.60;;;;;;;16.23;47.76;101106.84;5024088;28;20056;-70
2022/05/30 09:02:26;;;;;;;5.47;0.90;;;;;;;16.26;48.63;101103.84;5021720;28;20122;-70
2022/05/30 09:05:10;;;;;;;6.60;0.90;;;;;;;16.11;49.00;101104.69;5037898;28;20029;-70
2022/05/30 09:07:49;;;;;;;11.40;1.30;;;;;;;16.13;50.15;101107.13;5025503;28;20029;-70
2022/05/30 09:10:40;;;;;;;4.38;0.90;;;;;;;16.12;49.73;101105.50;5038562;28;20087;-70
2022/05/30 09:13:42;;;;;;;5.85;0.93;;;;;;;16.23;49.76;101104.22;5038920;28;20037;-70
2022/05/30 09:16:31;;;;;;;7.50;1.10;;;;;;;16.33;47.71;101113.38;5006704;28;20132;-70
2022/05/30 09:19:06;;;;;;;5.03;1.20;;;;;;;16.48;48.62;101104.66;5022169;28;20041;-70
2022/05/30 09:21:32;;;;;;;9.75;1.55;;;;;;;17.35;48.94;101103.53;5021107;28;20592;-70
2022/05/30 09:23:59;;;;;;;6.47;1.20;;;;;;;18.09;45.60;101094.16;5040317;28;20049;-70
2022/05/30 09:26:33;;;;;;;4.38;1.30;;;;;;;17.73;46.85;101102.28;5035468;28;20067;-70
2022/05/30 09:29:23;;;;;;;4.88;1.50;;;;;;;17.24;44.26;101101.44;5036311;28;20046;-70
2022/05/30 09:32:24;;;;;;;5.85;1.35;;;;;;;17.00;45.21;101103.50;5019196;28;20044;-70
2022/05/30 09:34:53;;;;;;;4.10;1.25;;;;;;;16.83;45.71;101097.72;5021261;28;20483;-70
2022/05/30 09:37:38;;;;;;;2.70;0.70;;;;;;;16.92;44.61;101101.03;5018687;28;20040;-70
2022/05/30 09:40:07;;;;;;;4.75;0.60;;;;;;;17.01;43.32;101101.69;5019215;28;20044;-70
2022/05/30 09:42:37;;;;;;;2.22;0.50;;;;;;;17.04;38.73;101096.06;5000578;28;20037;-70
2022/05/30 09:45:27;;;;;;;2.88;0.85;;;;;;;16.90;44.41;101103.03;5019537;28;20038;-69
2022/05/30 09:48:15;;;;;;;4.32;0.82;;;;;;;17.02;44.58;101095.44;5018805;28;20041;-70
2022/05/30 09:51:03;;;;;;;5.18;1.25;;;;;;;17.08;44.89;101097.28;5022672;28;20033;-70
2022/05/30 09:53:43;;;;;;;4.72;0.98;;;;;;;17.06;43.08;101100.09;5018442;28;20134;-70
2022/05/30 09:56:13;;;;;;;7.45;1.30;;;;;;;16.57;44.22;101098.28;5025478;28;20049;-70
2022/05/30 09:58:49;;;;;;;6.22;1.65;;;;;;;16.46;44.38;101106.66;5036631;28;20034;-70
2022/05/30 10:01:36;;;;;;;6.45;1.10;;;;;;;16.46;44.55;101101.41;5020655;28;20033;-70
2022/05/30 10:04:39;;;;;;;4.35;1.20;;;;;;;16.48;45.12;101105.47;5039489;28;20655;-70
2022/05/30 10:07:13;;;;;;;6.78;1.20;;;;;;;16.51;45.02;101102.47;5006112;28;20513;-70
2022/05/30 10:10:20;;;;;;;3.40;1.00;;;;;;;16.51;46.65;101105.09;5020846;28;20064;-70
2022/05/30 10:13:07;;;;;;;3.28;1.00;;;;;;;16.20;46.44;101101.97;5038783;28;20036;-70
2022/05/30 10:15:59;;;;;;;8.77;1.08;;;;;;;16.29;47.55;101108.69;5022732;28;20041;-70
2022/05/30 10:18:32;;;;;;;2.88;0.93;;;;;;;16.19;45.69;101106.38;5003228;28;20033;-70
2022/05/30 10:21:11;;;;;;;11.40;3.92;;;;;;;16.20;46.31;101105.41;5022354;28;20033;-70
2022/05/30 10:30:47;;;;;;;4.20;1.00;;;;;;;16.44;48.06;101112.06;5020871;28;20045;-70
2022/05/30 10:34:02;;;;;;;5.10;1.10;;;;;;;16.23;46.76;101112.06;5020007;28;20033;-70
2022/05/30 10:36:50;;;;;;;4.93;1.05;;;;;;;16.26;46.98;101112.50;5019722;28;20514;-70
2022/05/30 10:39:55;;;;;;;6.75;1.35;;;;;;;16.54;47.08;101111.78;5007147;28;20103;-70
2022/05/30 10:42:31;;;;;;;5.30;1.23;;;;;;;16.49;47.13;101116.75;5039924;28;20061;-70
2022/05/30 10:45:10;;;;;;;9.43;1.60;;;;;;;16.21;46.12;101117.47;5039747;28;20488;-70
2022/05/30 10:47:48;;;;;;;6.03;1.17;;;;;;;16.18;48.75;101115.25;5038702;28;20116;-70
2022/05/30 10:50:52;;;;;;;2.92;0.90;;;;;;;16.24;48.48;101119.72;5020254;28;20040;-70
2022/05/30 10:53:35;;;;;;;9.75;1.33;;;;;;;16.51;47.40;101123.41;5040232;28;20073;-70
2022/05/30 10:56:30;;;;;;;5.88;1.52;;;;;;;16.63;46.88;101125.53;5018216;28;20073;-70
2022/05/30 10:59:06;;;;;;;4.45;1.20;;;;;;;16.86;47.61;101128.00;5024677;28;20051;-70
2022/05/30 11:01:44;;;;;;;3.85;1.10;;;;;;;16.82;47.45;101126.69;5041772;28;20037;-69
2022/05/30 11:04:35;;;;;;;7.95;1.67;;;;;;;16.98;47.95;101126.44;5023081;28;20090;-70
2022/05/30 11:07:14;;;;;;;7.32;1.67;;;;;;;16.72;45.73;101124.41;5027490;28;20040;-70
2022/05/30 11:09:48;;;;;;;10.27;1.65;;;;;;;16.90;47.08;101121.38;5006597;28;20025;-70
2022/05/30 11:12:20;;;;;;;8.23;1.40;;;;;;;17.19;46.83;101120.34;5024209;28;20036;-70
2022/05/30 11:15:01;;;;;;;6.40;1.20;;;;;;;17.24;45.66;101127.66;5023497;28;20033;-70
2022/05/30 11:18:01;;;;;;;5.10;0.73;;;;;;;17.01;47.57;101117.38;5015564;28;20420;-70
2022/05/30 11:21:07;;;;;;;8.30;1.30;;;;;;;17.21;45.98;101123.59;5020994;28;20069;-70
2022/05/30 11:23:34;;;;;;;4.53;1.00;;;;;;;17.21;45.13;101120.97;5022985;28;20049;-70
2022/05/30 11:26:03;;;;;;;3.72;1.10;;;;;;;17.23;44.43;101118.16;5022469;28;20222;-70
2022/05/30 11:28:31;;;;;;;4.57;1.05;;;;;;;17.24;43.86;101117.16;5040938;28;20091;-70
2022/05/30 11:31:05;;;;;;;5.32;1.27;;;;;;;17.25;43.33;101124.00;5026790;28;20028;-70
2022/05/30 11:33:52;;;;;;;6.07;1.08;;;;;;;17.19;43.97;101124.78;5021400;28;20478;-70
2022/05/30 11:36:39;;;;;;;7.03;1.90;;;;;;;17.34;44.83;101127.31;5023966;28;20052;-70
2022/05/30 11:39:26;;;;;;;7.05;1.00;;;;;;;17.21;44.87;101122.78;5024389;28;20099;-70
2022/05/30 11:41:59;;;;;;;6.43;1.40;;;;;;;17.43;43.82;101124.31;5027649;28;20047;-70
2022/05/30 11:44:43;;;;;;;;;;;;;;;17.66;42.51;101117.97;5041607;28;20087;-70
2022/05/30 11:47:33;;;;;;;3.60;0.77;;;;;;;17.71;43.06;101118.22;5024413;28;20320;-70
2022/05/30 11:50:26;;;;;;;3.08;1.00;;;;;;;17.79;41.52;101117.25;5023658;28;20037;-70
2022/05/30 11:53:20;;;;;;;6.57;1.10;;;;;;;17.77;41.79;101119.25;5021783;28;20021;-70
2022/05/30 11:55:59;;;;;;;4.45;1.10;;;;;;;17.79;41.77;101125.91;5041557;28;20061;-70
2022/05/30 11:58:31;;;;;;;4.47;1.35;;;;;;;17.95;41.82;101119.56;5006667;28;20041;-70
2022/05/30 12:00:59;;;;;;;4.78;1.00;;;;;;;17.89;39.65;101118.53;5040355;28;20046;-70
2022/05/30 12:03:34;;;;;;;5.38;0.82;;;;;;;17.84;41.44;101122.72;5027084;28;20025;-70
2022/05/30 12:06:07;;;;;;;4.78;1.27;;;;;;;17.92;43.23;101119.13;5043243;28;20052;-70
2022/05/30 12:08:41;;;;;;;6.70;0.98;;;;;;;18.06;42.17;101124.22;5027113;28;20041;-69
2022/05/30 12:11:36;;;;;;;4.28;0.95;;;;;;;18.13;40.47;101119.00;5025585;28;20036;-70
2022/05/30 12:14:26;;;;;;;4.65;0.82;;;;;;;18.07;39.08;101107.47;5028953;28;20093;-70
2022/05/30 12:17:22;;;;;;;5.10;1.27;;;;;;;18.33;40.24;101115.59;5042526;28;20426;-70
2022/05/30 12:25:51;;;;;;;7.35;1.60;;;;;;;18.81;38.18;101100.50;5042050;28;20029;-70
2022/05/30 12:28:28;;;;;;;5.32;0.85;;;;;;;18.99;37.90;101096.47;5025956;28;20045;-70
2022/05/30 12:30:58;;;;;;;5.35;1.65;;;;;;;18.63;38.42;101100.28;5021096;28;20079;-70